createdAt,value
2017-06-26T00:00:19.931Z,8.60
2017-06-26T00:02:48.316Z,9.23
2017-06-26T00:05:16.727Z,9.10
2017-06-26T00:07:45.495Z,9.20
2017-06-26T00:10:13.966Z,7.80
2017-06-26T00:12:42.339Z,9.43
2017-06-26T00:15:11.030Z,8.53
2017-06-26T00:17:39.410Z,9.17
2017-06-26T00:20:07.783Z,7.67
2017-06-26T00:22:36.166Z,9.50
2017-06-26T00:25:04.561Z,8.50
2017-06-26T00:27:32.943Z,9.10
2017-06-26T00:30:01.315Z,9.13
2017-06-26T00:32:29.700Z,9.20
2017-06-26T00:34:58.408Z,8.90
2017-06-26T00:37:26.795Z,10.20
2017-06-26T00:39:55.559Z,9.63
2017-06-26T00:42:24.671Z,9.40
2017-06-26T00:44:53.442Z,9.37
2017-06-26T00:47:21.816Z,9.20
2017-06-26T00:49:50.202Z,9.70
2017-06-26T00:52:18.570Z,8.27
2017-06-26T00:54:46.967Z,9.70
2017-06-26T00:57:15.354Z,9.20
2017-06-26T00:59:44.330Z,8.60
2017-06-26T01:02:12.708Z,8.43
2017-06-26T01:04:41.091Z,7.93
2017-06-26T01:07:09.472Z,8.87
2017-06-26T01:09:37.879Z,9.40
2017-06-26T01:12:06.670Z,8.43
2017-06-26T01:14:35.048Z,8.77
2017-06-26T01:17:03.822Z,8.67
2017-06-26T01:19:32.924Z,8.40
2017-06-26T01:22:01.749Z,9.10
2017-06-26T01:24:30.134Z,10.47
2017-06-26T01:26:58.631Z,9.80
2017-06-26T01:29:27.006Z,10.20
2017-06-26T01:31:55.381Z,11.87
2017-06-26T01:34:23.803Z,11.57
2017-06-26T01:36:52.279Z,11.13
2017-06-26T01:39:20.771Z,11.53
2017-06-26T01:41:49.143Z,13.43
2017-06-26T01:44:17.622Z,11.83
2017-06-26T01:46:45.995Z,11.30
2017-06-26T01:49:14.578Z,11.10
2017-06-26T01:51:43.062Z,10.97
2017-06-26T01:54:11.441Z,13.37
2017-06-26T01:56:39.832Z,14.03
2017-06-26T01:59:08.211Z,11.87
2017-06-26T02:01:37.235Z,11.93
2017-06-26T02:04:06.302Z,11.70
2017-06-26T02:06:35.002Z,10.87
2017-06-26T02:09:03.836Z,10.10
2017-06-26T02:11:32.215Z,11.53
2017-06-26T02:14:00.611Z,10.80
2017-06-26T02:16:28.987Z,11.30
2017-06-26T02:18:57.380Z,9.63
2017-06-26T02:21:26.002Z,10.40
2017-06-26T02:23:54.790Z,9.83
2017-06-26T02:26:23.562Z,10.93
2017-06-26T02:28:52.139Z,10.03
2017-06-26T02:31:20.519Z,10.37
2017-06-26T02:33:48.894Z,9.90
2017-06-26T02:36:17.278Z,11.27
2017-06-26T02:38:45.890Z,10.90
2017-06-26T02:41:14.670Z,9.50
2017-06-26T02:43:43.543Z,9.53
2017-06-26T02:46:11.984Z,9.77
2017-06-26T02:48:40.407Z,9.60
2017-06-26T02:51:08.795Z,10.20
2017-06-26T02:53:37.172Z,9.60
2017-06-26T02:56:06.082Z,10.07
2017-06-26T02:58:34.846Z,8.60
2017-06-26T03:01:03.231Z,11.10
2017-06-26T03:03:31.618Z,10.10
2017-06-26T03:05:59.995Z,9.63
2017-06-26T03:08:28.386Z,9.20
2017-06-26T03:10:57.150Z,9.37
2017-06-26T03:13:25.536Z,9.20
2017-06-26T03:15:53.908Z,8.80
2017-06-26T03:18:22.498Z,10.10
2017-06-26T03:20:50.866Z,9.67
2017-06-26T03:23:19.482Z,9.13
2017-06-26T03:25:48.266Z,10.00
2017-06-26T03:28:17.030Z,8.50
2017-06-26T03:30:45.419Z,9.17
2017-06-26T03:33:13.791Z,8.87
2017-06-26T03:35:42.179Z,9.73
2017-06-26T03:38:10.547Z,8.80
2017-06-26T03:40:39.167Z,10.33
2017-06-26T03:43:07.950Z,10.67
2017-06-26T03:45:36.727Z,12.03
2017-06-26T03:48:05.339Z,9.93
2017-06-26T03:50:33.713Z,10.80
2017-06-26T03:53:02.487Z,11.27
2017-06-26T03:55:30.878Z,10.00
2017-06-26T03:57:59.975Z,11.00
2017-06-26T04:00:28.764Z,10.33
2017-06-26T04:02:57.223Z,10.50
2017-06-26T04:05:25.807Z,9.70
2017-06-26T04:07:55.134Z,12.10
2017-06-26T04:10:23.899Z,9.50
2017-06-26T04:12:53.186Z,10.03
2017-06-26T04:15:21.554Z,10.13
2017-06-26T04:17:49.943Z,9.80
2017-06-26T04:20:18.330Z,10.20
2017-06-26T04:22:46.924Z,10.27
2017-06-26T04:25:15.291Z,9.80
2017-06-26T04:27:43.662Z,9.50
2017-06-26T04:30:12.058Z,10.27
2017-06-26T04:32:40.438Z,9.83
2017-06-26T04:35:09.339Z,9.73
2017-06-26T04:37:37.718Z,10.40
2017-06-26T04:40:06.115Z,10.50
2017-06-26T04:42:34.886Z,9.50
2017-06-26T04:45:03.283Z,9.83
2017-06-26T04:47:32.052Z,9.83
2017-06-26T04:50:01.023Z,11.40
2017-06-26T04:52:29.394Z,11.23
2017-06-26T04:54:57.794Z,11.90
2017-06-26T04:57:26.182Z,12.53
2017-06-26T04:59:54.559Z,12.70
2017-06-26T05:02:22.944Z,13.63
2017-06-26T05:04:51.332Z,13.80
2017-06-26T05:07:20.090Z,15.50
2017-06-26T05:09:48.719Z,13.23
2017-06-26T05:12:17.495Z,14.80
2017-06-26T05:14:45.921Z,15.87
2017-06-26T05:17:14.303Z,16.57
2017-06-26T05:19:42.703Z,14.80
2017-06-26T05:22:11.078Z,15.20
2017-06-26T05:24:39.802Z,17.90
2017-06-26T05:27:08.179Z,16.70
2017-06-26T05:29:36.564Z,16.67
2017-06-26T05:32:05.262Z,17.83
2017-06-26T05:34:34.035Z,16.93
2017-06-26T05:37:02.427Z,20.50
2017-06-26T05:39:31.298Z,20.50
2017-06-26T05:41:59.686Z,20.20
2017-06-26T05:44:28.069Z,21.90
2017-06-26T05:46:56.642Z,20.00
2017-06-26T05:49:25.015Z,20.00
2017-06-26T05:51:53.394Z,22.47
2017-06-26T05:54:22.115Z,21.50
2017-06-26T05:56:50.491Z,22.93
2017-06-26T05:59:19.591Z,24.53
2017-06-26T06:01:48.360Z,23.20
2017-06-26T06:04:17.327Z,22.17
2017-06-26T06:06:45.703Z,23.10
2017-06-26T06:09:14.211Z,23.23
2017-06-26T06:11:42.606Z,25.73
2017-06-26T06:14:11.710Z,31.07
2017-06-26T06:16:40.807Z,25.50
2017-06-26T06:19:09.262Z,31.33
2017-06-26T06:21:37.650Z,25.47
2017-06-26T06:24:06.018Z,17.53
2017-06-26T06:26:34.411Z,13.23
2017-06-26T06:29:02.822Z,16.40
2017-06-26T06:31:31.203Z,18.77
2017-06-26T06:33:59.590Z,12.90
2017-06-26T06:36:27.967Z,19.47
2017-06-26T06:38:56.507Z,16.77
2017-06-26T06:41:24.884Z,15.40
2017-06-26T06:43:53.268Z,20.50
2017-06-26T06:46:21.670Z,21.43
2017-06-26T06:48:50.447Z,12.80
2017-06-26T06:51:19.249Z,18.67
2017-06-26T06:53:48.032Z,10.77
2017-06-26T06:56:16.928Z,8.73
2017-06-26T06:58:45.312Z,7.80
2017-06-26T07:01:14.402Z,11.10
2017-06-26T07:03:43.200Z,12.17
2017-06-26T07:06:11.574Z,12.57
2017-06-26T07:08:40.355Z,7.67
2017-06-26T07:11:09.140Z,13.10
2017-06-26T07:13:37.523Z,6.83
2017-06-26T07:16:06.294Z,5.90
2017-06-26T07:18:34.878Z,6.47
2017-06-26T07:21:03.256Z,8.07
2017-06-26T07:23:31.656Z,9.17
2017-06-26T07:26:00.056Z,10.37
2017-06-26T07:28:28.503Z,7.23
2017-06-26T07:30:56.996Z,18.07
2017-06-26T07:33:25.375Z,10.53
2017-06-26T07:35:54.163Z,9.63
2017-06-26T07:38:23.045Z,14.47
2017-06-26T07:40:51.433Z,8.70
2017-06-26T07:43:19.831Z,31.27
2017-06-26T07:45:48.608Z,7.00
2017-06-26T07:48:16.995Z,4.00
2017-06-26T07:50:45.763Z,4.13
2017-06-26T07:53:14.318Z,3.90
2017-06-26T07:55:42.700Z,3.10
2017-06-26T07:58:11.075Z,2.70
2017-06-26T08:00:39.476Z,2.40
2017-06-26T08:03:07.860Z,2.63
2017-06-26T08:05:36.255Z,2.80
2017-06-26T08:08:04.622Z,2.90
2017-06-26T08:10:33.002Z,7.70
2017-06-26T08:13:01.370Z,6.80
2017-06-26T08:15:29.755Z,4.37
2017-06-26T08:17:58.373Z,5.10
2017-06-26T08:20:27.467Z,4.23
2017-06-26T08:22:56.260Z,2.43
2017-06-26T08:25:25.049Z,3.00
2017-06-26T08:27:53.826Z,1.87
2017-06-26T08:30:22.195Z,1.30
2017-06-26T08:32:50.580Z,2.60
2017-06-26T08:35:18.965Z,3.30
2017-06-26T08:37:47.348Z,2.00
2017-06-26T08:40:15.735Z,1.53
2017-06-26T08:42:44.520Z,1.43
2017-06-26T08:45:13.307Z,1.90
2017-06-26T08:47:42.090Z,1.33
2017-06-26T08:50:10.488Z,1.30
2017-06-26T08:52:38.867Z,3.53
2017-06-26T08:55:07.651Z,2.40
2017-06-26T08:57:36.450Z,2.13
2017-06-26T09:00:04.827Z,2.03
2017-06-26T09:02:33.615Z,2.70
2017-06-26T09:05:02.379Z,2.30
2017-06-26T09:07:30.776Z,2.97
2017-06-26T09:09:59.543Z,2.27
2017-06-26T09:12:27.932Z,1.30
2017-06-26T09:14:56.318Z,2.10
2017-06-26T09:17:25.101Z,2.03
2017-06-26T09:19:53.686Z,1.83
2017-06-26T09:22:22.065Z,2.40
2017-06-26T09:24:50.453Z,1.80
2017-06-26T09:27:19.239Z,1.30
2017-06-26T09:29:48.020Z,1.40
2017-06-26T09:32:16.505Z,1.70
2017-06-26T09:34:45.279Z,2.00
2017-06-26T09:37:13.681Z,2.40
2017-06-26T09:39:42.563Z,2.03
2017-06-26T09:42:10.965Z,1.63
2017-06-26T09:44:40.055Z,1.50
2017-06-26T09:47:08.832Z,1.30
2017-06-26T09:49:37.242Z,1.90
2017-06-26T09:52:05.636Z,1.13
2017-06-26T09:54:34.168Z,1.10
2017-06-26T09:57:03.079Z,1.77
2017-06-26T09:59:31.865Z,1.13
2017-06-26T10:02:00.651Z,0.90
2017-06-26T10:04:29.532Z,1.53
2017-06-26T10:06:58.749Z,3.80
2017-06-26T10:09:27.133Z,4.00
2017-06-26T10:11:55.929Z,1.70
2017-06-26T10:14:24.371Z,0.80
2017-06-26T10:16:52.968Z,1.03
2017-06-26T10:19:21.343Z,1.37
2017-06-26T10:21:49.725Z,1.10
2017-06-26T10:24:18.208Z,1.33
2017-06-26T10:26:46.696Z,1.10
2017-06-26T10:29:15.479Z,1.13
2017-06-26T10:31:43.855Z,1.13
2017-06-26T10:34:12.292Z,1.17
2017-06-26T10:36:40.672Z,1.30
2017-06-26T10:39:09.199Z,1.20
2017-06-26T10:41:37.585Z,1.07
2017-06-26T10:44:05.972Z,1.20
2017-06-26T10:46:34.756Z,1.50
2017-06-26T10:49:03.128Z,1.97
2017-06-26T10:51:32.136Z,1.60
2017-06-26T10:54:00.913Z,1.37
2017-06-26T10:56:29.299Z,1.23
2017-06-26T10:58:57.680Z,3.90
2017-06-26T11:01:26.067Z,4.57
2017-06-26T11:03:54.839Z,6.70
2017-06-26T11:06:23.420Z,2.77
2017-06-26T11:08:51.788Z,1.83
2017-06-26T11:11:20.178Z,2.63
2017-06-26T11:13:48.576Z,1.70
2017-06-26T11:16:17.408Z,1.77
2017-06-26T11:18:45.795Z,1.87
2017-06-26T11:21:14.192Z,1.50
2017-06-26T11:23:42.891Z,1.77
2017-06-26T11:26:11.272Z,1.70
2017-06-26T11:28:39.657Z,1.50
2017-06-26T11:31:08.053Z,1.60
2017-06-26T11:33:36.819Z,1.80
2017-06-26T11:36:05.541Z,1.93
2017-06-26T11:38:34.325Z,2.03
2017-06-26T11:41:03.308Z,1.73
2017-06-26T11:43:32.004Z,1.73
2017-06-26T11:46:00.377Z,1.60
2017-06-26T11:48:29.164Z,1.53
2017-06-26T11:50:57.936Z,2.00
2017-06-26T11:53:26.340Z,3.00
2017-06-26T11:55:55.121Z,1.77
2017-06-26T11:58:23.511Z,2.20
2017-06-26T12:00:52.303Z,3.67
2017-06-26T12:03:21.727Z,3.90
2017-06-26T12:05:50.119Z,2.37
2017-06-26T12:08:18.718Z,2.33
2017-06-26T12:10:47.106Z,2.27
2017-06-26T12:13:15.489Z,2.03
2017-06-26T12:15:43.875Z,1.50
2017-06-26T12:18:12.300Z,1.73
2017-06-26T12:20:40.697Z,2.00
2017-06-26T12:23:09.071Z,2.00
2017-06-26T12:25:38.203Z,2.20
2017-06-26T12:28:06.589Z,1.87
2017-06-26T12:30:34.990Z,1.40
2017-06-26T12:33:03.367Z,1.90
2017-06-26T12:35:31.761Z,1.83
2017-06-26T12:38:00.863Z,2.77
2017-06-26T12:40:29.652Z,2.70
2017-06-26T12:42:58.461Z,1.60
2017-06-26T12:45:26.850Z,2.70
2017-06-26T12:47:55.244Z,1.87
2017-06-26T12:50:23.630Z,1.83
2017-06-26T12:52:52.024Z,1.40
2017-06-26T12:55:20.644Z,1.70
2017-06-26T12:57:49.520Z,1.83
2017-06-26T13:00:17.896Z,1.60
2017-06-26T13:02:46.493Z,1.37
2017-06-26T13:05:15.258Z,2.07
2017-06-26T13:07:43.632Z,1.43
2017-06-26T13:10:12.250Z,2.00
2017-06-26T13:12:41.137Z,3.20
2017-06-26T13:15:09.951Z,1.60
2017-06-26T13:17:38.327Z,1.30
2017-06-26T13:20:07.029Z,1.60
2017-06-26T13:22:35.420Z,1.37
2017-06-26T13:25:03.816Z,2.23
2017-06-26T13:27:32.549Z,1.80
2017-06-26T13:30:00.923Z,1.70
2017-06-26T13:32:29.316Z,2.30
2017-06-26T13:34:57.701Z,1.63
2017-06-26T13:37:26.145Z,1.57
2017-06-26T13:39:54.516Z,2.10
2017-06-26T13:42:23.108Z,2.67
2017-06-26T13:44:51.595Z,1.80
2017-06-26T13:47:20.303Z,1.70
2017-06-26T13:49:48.691Z,2.00
2017-06-26T13:52:17.609Z,1.63
2017-06-26T13:54:46.093Z,1.93
2017-06-26T13:57:14.469Z,2.17
2017-06-26T13:59:43.010Z,2.40
2017-06-26T14:02:11.779Z,2.70
2017-06-26T14:04:40.151Z,2.50
2017-06-26T14:07:08.553Z,2.07
2017-06-26T14:09:36.937Z,2.73
2017-06-26T14:12:05.752Z,2.40
2017-06-26T14:14:34.132Z,2.50
2017-06-26T14:17:02.688Z,1.90
2017-06-26T14:19:31.073Z,2.10
2017-06-26T14:21:59.853Z,1.90
2017-06-26T14:24:28.255Z,2.03
2017-06-26T14:26:57.027Z,2.00
2017-06-26T14:29:25.411Z,2.47
2017-06-26T14:31:54.199Z,2.00
2017-06-26T14:34:22.979Z,2.20
2017-06-26T14:36:51.365Z,2.40
2017-06-26T14:39:19.767Z,2.30
2017-06-26T14:41:48.159Z,2.80
2017-06-26T14:44:17.419Z,2.13
2017-06-26T14:46:45.801Z,2.23
2017-06-26T14:49:14.184Z,1.97
2017-06-26T14:51:42.572Z,2.00
2017-06-26T14:54:11.671Z,2.47
2017-06-26T14:56:40.136Z,2.43
2017-06-26T14:59:08.511Z,5.00
2017-06-26T15:01:36.900Z,2.17
2017-06-26T15:04:05.676Z,2.90
2017-06-26T15:06:34.062Z,2.20
2017-06-26T15:09:02.431Z,2.80
2017-06-26T15:11:31.024Z,2.47
2017-06-26T15:13:59.738Z,1.93
2017-06-26T15:16:28.525Z,2.90
2017-06-26T15:18:57.303Z,2.53
2017-06-26T15:21:26.240Z,2.60
2017-06-26T15:23:54.825Z,2.93
2017-06-26T15:26:23.271Z,2.40
2017-06-26T15:28:52.239Z,2.63
2017-06-26T15:31:20.633Z,2.60
2017-06-26T15:33:49.508Z,2.83
2017-06-26T15:36:17.891Z,2.10
2017-06-26T15:38:46.494Z,2.73
2017-06-26T15:41:15.288Z,2.50
2017-06-26T15:43:44.095Z,2.63
2017-06-26T15:46:12.479Z,2.40
2017-06-26T15:48:40.866Z,4.93
2017-06-26T15:51:09.240Z,2.70
2017-06-26T15:53:37.641Z,4.60
2017-06-26T15:56:06.060Z,3.07
2017-06-26T15:58:34.490Z,4.60
2017-06-26T16:03:37.696Z,3.30
2017-06-26T16:06:06.081Z,3.10
2017-06-26T16:08:34.824Z,3.30
2017-06-26T16:11:03.259Z,2.83
2017-06-26T16:13:31.660Z,3.00
2017-06-26T16:16:00.060Z,3.20
2017-06-26T16:18:28.869Z,2.67
2017-06-26T16:20:57.731Z,2.07
2017-06-26T16:23:26.148Z,8.00
2017-06-26T16:25:54.698Z,2.33
2017-06-26T16:28:23.192Z,5.20
2017-06-26T16:30:52.085Z,2.40
2017-06-26T16:33:20.873Z,3.03
2017-06-26T16:35:49.656Z,2.80
2017-06-26T16:38:18.053Z,2.13
2017-06-26T16:40:46.818Z,2.10
2017-06-26T16:43:15.404Z,2.67
2017-06-26T16:45:43.792Z,8.57
2017-06-26T16:48:12.168Z,6.57
2017-06-26T16:50:40.599Z,3.23
2017-06-26T16:53:08.977Z,3.57
2017-06-26T16:55:37.362Z,3.03
2017-06-26T16:58:05.752Z,2.40
2017-06-26T17:00:34.143Z,3.30
2017-06-26T17:03:02.520Z,2.70
2017-06-26T17:05:30.977Z,2.10
2017-06-26T17:07:59.360Z,3.60
2017-06-26T17:10:27.996Z,3.80
2017-06-26T17:12:56.384Z,2.17
2017-06-26T17:15:25.488Z,2.73
2017-06-26T17:17:54.158Z,5.67
2017-06-26T17:20:22.544Z,2.90
2017-06-26T17:22:51.332Z,2.63
2017-06-26T17:25:20.102Z,2.27
2017-06-26T17:27:48.499Z,2.70
2017-06-26T17:30:16.886Z,2.53
2017-06-26T17:32:45.673Z,2.70
2017-06-26T17:35:14.448Z,3.03
2017-06-26T17:37:43.040Z,2.37
2017-06-26T17:40:11.936Z,2.90
2017-06-26T17:42:40.825Z,2.20
2017-06-26T17:45:09.607Z,3.33
2017-06-26T17:47:38.587Z,2.10
2017-06-26T17:50:06.986Z,3.40
2017-06-26T17:52:35.368Z,2.23
2017-06-26T17:55:04.054Z,2.67
2017-06-26T17:57:32.437Z,2.73
2017-06-26T18:00:01.207Z,2.30
2017-06-26T18:02:29.599Z,2.37
2017-06-26T18:04:57.981Z,2.27
2017-06-26T18:07:26.611Z,2.00
2017-06-26T18:09:55.003Z,3.50
2017-06-26T18:12:23.642Z,3.10
2017-06-26T18:14:52.843Z,2.67
2017-06-26T18:17:21.631Z,3.03
2017-06-26T18:19:50.017Z,2.70
2017-06-26T18:22:18.984Z,4.00
2017-06-26T18:24:47.374Z,15.40
2017-06-26T18:27:17.487Z,5.37
2017-06-26T18:29:45.882Z,4.20
2017-06-26T18:32:14.748Z,2.80
2017-06-26T18:34:43.156Z,3.20
2017-06-26T18:37:11.929Z,3.00
2017-06-26T18:39:40.720Z,3.30
2017-06-26T18:42:09.091Z,3.00
2017-06-26T18:44:37.575Z,4.27
2017-06-26T18:47:05.972Z,8.30
2017-06-26T18:49:34.857Z,7.87
2017-06-26T18:52:03.258Z,3.60
2017-06-26T18:54:31.693Z,4.33
2017-06-26T18:57:00.226Z,4.23
2017-06-26T18:59:28.674Z,4.60
2017-06-26T19:01:57.058Z,3.27
2017-06-26T19:04:25.445Z,3.80
2017-06-26T19:06:54.433Z,3.27
2017-06-26T19:09:22.807Z,3.80
2017-06-26T19:11:51.240Z,5.60
2017-06-26T19:14:19.633Z,9.87
2017-06-26T19:16:48.021Z,12.70
2017-06-26T19:19:16.407Z,5.40
2017-06-26T19:21:44.784Z,5.50
2017-06-26T19:24:13.516Z,12.37
2017-06-26T19:26:42.284Z,4.23
2017-06-26T19:29:10.863Z,3.23
2017-06-26T19:31:39.471Z,4.50
2017-06-26T19:34:08.579Z,8.40
2017-06-26T19:36:36.985Z,5.27
2017-06-26T19:39:05.377Z,10.07
2017-06-26T19:41:33.775Z,5.73
2017-06-26T19:44:02.860Z,4.30
2017-06-26T19:46:31.482Z,3.70
2017-06-26T19:49:00.250Z,2.70
2017-06-26T19:51:29.333Z,3.27
2017-06-26T19:53:57.894Z,3.57
2017-06-26T19:56:26.300Z,11.30
2017-06-26T19:58:54.888Z,19.30
2017-06-26T20:01:23.284Z,5.20
2017-06-26T20:03:51.881Z,3.67
2017-06-26T20:06:20.654Z,2.80
2017-06-26T20:08:49.031Z,2.70
2017-06-26T20:11:17.419Z,3.43
2017-06-26T20:13:45.853Z,2.97
2017-06-26T20:16:14.239Z,2.57
2017-06-26T20:18:42.815Z,2.80
2017-06-26T20:21:11.219Z,2.07
2017-06-26T20:23:39.604Z,2.50
2017-06-26T20:26:07.992Z,4.60
2017-06-26T20:28:36.373Z,7.40
2017-06-26T20:31:05.300Z,10.80
2017-06-26T20:33:34.387Z,5.63
2017-06-26T20:36:03.164Z,4.07
2017-06-26T20:38:31.862Z,3.17
2017-06-26T20:41:00.668Z,3.83
2017-06-26T20:43:29.082Z,2.17
2017-06-26T20:45:57.469Z,3.23
2017-06-26T20:48:25.971Z,4.27
2017-06-26T20:50:55.273Z,7.20
2017-06-26T20:53:23.656Z,7.53
2017-06-26T20:55:52.051Z,5.07
2017-06-26T20:58:20.836Z,9.40
2017-06-26T21:00:49.241Z,4.50
2017-06-26T21:03:17.639Z,11.53
2017-06-26T21:05:46.048Z,20.53
2017-06-26T21:08:14.436Z,14.73
2017-06-26T21:10:42.979Z,4.47
2017-06-26T21:13:11.350Z,3.33
2017-06-26T21:15:39.736Z,3.80
2017-06-26T21:18:08.400Z,2.97
2017-06-26T21:20:37.181Z,4.10
2017-06-26T21:23:05.981Z,4.53
2017-06-26T21:25:34.756Z,2.87
2017-06-26T21:28:03.553Z,5.00
2017-06-26T21:30:32.326Z,4.77
2017-06-26T21:33:00.720Z,4.23
2017-06-26T21:35:30.432Z,2.90
2017-06-26T21:37:59.228Z,3.10
2017-06-26T21:40:28.094Z,3.50
2017-06-26T21:42:56.471Z,5.00
2017-06-26T21:45:24.869Z,4.23
2017-06-26T21:47:53.736Z,3.93
2017-06-26T21:50:22.141Z,3.10
2017-06-26T21:52:50.928Z,19.70
2017-06-26T21:55:19.909Z,6.50
2017-06-26T21:57:48.296Z,6.33
2017-06-26T22:00:16.681Z,7.50
2017-06-26T22:02:45.527Z,5.00
2017-06-26T22:05:13.913Z,7.50
2017-06-26T22:07:42.321Z,4.93
2017-06-26T22:10:10.795Z,5.10
2017-06-26T22:12:39.192Z,5.63
2017-06-26T22:15:07.997Z,3.50
2017-06-26T22:17:36.893Z,3.93
2017-06-26T22:20:05.277Z,4.53
2017-06-26T22:22:33.666Z,4.30
2017-06-26T22:25:02.064Z,5.00
2017-06-26T22:27:30.475Z,3.67
2017-06-26T22:29:59.097Z,3.80
2017-06-26T22:32:27.483Z,4.30
2017-06-26T22:34:55.889Z,4.50
2017-06-26T22:37:24.499Z,4.50
2017-06-26T22:39:53.009Z,3.80
2017-06-26T22:42:21.779Z,4.00
2017-06-26T22:44:50.697Z,3.23
2017-06-26T22:47:19.492Z,3.60
2017-06-26T22:49:48.272Z,4.73
2017-06-26T22:52:17.068Z,3.77
2017-06-26T22:54:45.835Z,3.87
2017-06-26T22:57:14.522Z,4.10
2017-06-26T22:59:43.226Z,4.30
2017-06-26T23:02:13.255Z,4.20
2017-06-26T23:04:41.653Z,4.20
2017-06-26T23:07:10.311Z,4.50
2017-06-26T23:09:39.184Z,4.77
2017-06-26T23:12:07.557Z,4.37
2017-06-26T23:14:36.160Z,3.57
2017-06-26T23:17:04.935Z,4.50
2017-06-26T23:19:33.321Z,4.40
2017-06-26T23:22:01.749Z,4.20
2017-06-26T23:24:30.132Z,4.60
2017-06-26T23:26:58.519Z,3.00
2017-06-26T23:29:26.895Z,4.10
2017-06-26T23:31:55.395Z,4.37
2017-06-26T23:34:23.770Z,4.50
2017-06-26T23:36:52.405Z,3.17
2017-06-26T23:39:21.192Z,4.43
2017-06-26T23:41:49.581Z,4.70
2017-06-26T23:44:18.439Z,4.50
2017-06-26T23:46:46.826Z,4.50
2017-06-26T23:49:15.224Z,4.40
2017-06-26T23:51:44.012Z,4.47
2017-06-26T23:54:12.833Z,4.37
2017-06-26T23:56:41.216Z,4.90
2017-06-26T23:59:09.753Z,4.77
